Nearby METAR Reports

 

KXLL - Allentown Queen, Pennsylvania, USA
Distance from station: E 6mi, 10km
Updated: Sat, 18-Nov-2017 10:15am EST
Clear
Clear
 Wind from S
Wind: S 9 mph , 15 km/h
Temperature: 41°F , 5°C
Wind Chill: 35°F , 2°C
Dew Point: 34°F , 1°C
Humidity: 76%
Barometer: 29.86 inHg , 1011.2 hPa
Clouds: Clear
Visibility: 10 miles , 16 km
2017/11/18 15:15 KXLL 181515Z AUTO 19008KT 10SM CLR 05/01 A2986 RMK AO2
KABE - Allentown, Pennsylvania, USA
Distance from station: NE 10mi, 17km
Updated: Sat, 18-Nov-2017 9:51am EST
Clear
Clear
 Wind from calm
Wind: Calm
Temperature: 39°F , 4°C
Dew Point: 28°F , -2°C
Humidity: 65%
Barometer: 29.88 inHg , 1011.9 hPa
Clouds: Clear
Visibility: 10 miles , 16 km
2017/11/18 14:51 KABE 181451Z 00000KT 10SM CLR 04/M02 A2988 RMK AO2 SLP122 T00391017 58022
 
KUKT - Quakertown Arp, Pennsylvania, USA
Distance from station: SE 14mi, 23km
Updated: Sat, 18-Nov-2017 10:15am EST
Clear
Clear
 Wind from S
Wind: S 7 mph , 11 km/h
Temperature: 41°F , 5°C
Wind Chill: 36°F , 2°C
Dew Point: 32°F , 0°C
Humidity: 70%
Barometer: 29.88 inHg , 1011.9 hPa
Clouds: Clear
Visibility: 10 miles , 16 km
2017/11/18 15:15 KUKT 181515Z AUTO 19006KT 10SM CLR 05/00 A2988 RMK AO1
KPTW - Pottstown, Pennsylvania, USA
Distance from station: S 22mi, 36km
Updated: Sat, 18-Nov-2017 9:54am EST
Clear
Clear
 Wind from calm
Wind: Calm
Temperature: 41°F , 5°C
Dew Point: 34°F , 1°C
Humidity: 76%
Barometer: 29.91 inHg , 1012.9 hPa
Clouds: Clear
Visibility: 8 miles , 13 km
2017/11/18 14:54 KPTW 181454Z AUTO 00000KT 8SM CLR 05/01 A2991 RMK AO2 SLP127 T00500011 58018
 
KRDG - Reading, Pennsylvania, USA
Distance from station: SW 23mi, 37km
Updated: Sat, 18-Nov-2017 9:54am EST
Clear
Clear
 Wind from calm
Wind: Calm
Temperature: 39°F , 4°C
Dew Point: 34°F , 1°C
Humidity: 81%
Barometer: 29.86 inHg , 1011.2 hPa
Clouds: Clear
Visibility: 10 miles , 16 km
2017/11/18 14:54 KRDG 181454Z AUTO 00000KT 10SM CLR 04/01 A2986 RMK AO2 SLP119 T00440011 58020
KDYL - Doylestown, Pennsylvania, USA
Distance from station: ESE 30mi, 48km
Updated: Sat, 18-Nov-2017 9:54am EST
Clear
Clear
 Wind from SSE
Wind: SSE 6 mph , 9 km/h
Temperature: 39°F , 4°C
Wind Chill: 35°F , 2°C
Dew Point: 34°F , 1°C
Humidity: 81%
Barometer: 29.89 inHg , 1012.2 hPa
Clouds: Clear
Visibility: 10 miles , 16 km
2017/11/18 14:54 KDYL 181454Z AUTO 15005KT 10SM CLR 04/01 A2989 RMK AO2 SLP128 T00390006 58020
 
KLOM - Philly Wings F, Pennsylvania, USA
Distance from station: SSE 34mi, 55km
Updated: Sat, 18-Nov-2017 10:15am EST
Clear
Clear
 Wind from S
Wind: S 6 mph , 9 km/h
Temperature: 43°F , 6°C
Wind Chill: 39°F , 4°C
Dew Point: 36°F , 2°C
Humidity: 76%
Barometer: 29.90 inHg , 1012.5 hPa
Clouds: Clear
Visibility: 10 miles , 16 km
2017/11/18 15:15 KLOM 181515Z AUTO 19005KT 10SM CLR 06/02 A2990 RMK AO1
KMPO - Mt. Pocono, Pennsylvania, USA
Distance from station: NNE 42mi, 67km
Updated: Sat, 18-Nov-2017 9:53am EST
Mostly cloudy
Mostly cloudy
 Wind from S
Wind: S 9 mph , 15 km/h
Temperature: 37°F , 3°C
Wind Chill: 30°F , -1°C
Dew Point: 28°F , -2°C
Humidity: 70%
Barometer: 29.80 inHg , 1009.1 hPa
Clouds: Mostly cloudy
Visibility: 10 miles , 16 km
Cloud details: Mostly cloudy 12000 ft
2017/11/18 14:53 KMPO 181453Z AUTO 19008KT 10SM BKN120 03/M02 A2980 RMK AO2 SLP111 T00281022 58019
 
KMQS - Coatesville, Pennsylvania, USA
Distance from station: SSW 42mi, 67km
Updated: Sat, 18-Nov-2017 10:15am EST
Mostly cloudy
Mostly cloudy
 Wind from S
Wind: S 7 mph , 11 km/h
Temperature: 43°F , 6°C
Wind Chill: 39°F , 4°C
Dew Point: 36°F , 2°C
Humidity: 76%
Barometer: 29.87 inHg , 1011.5 hPa
Clouds: Mostly cloudy
Visibility: 10 miles , 16 km
Cloud details: Mostly cloudy 9500 ft
2017/11/18 15:15 KMQS 181515Z AUTO 18006KT 10SM BKN095 06/02 A2987 RMK AO2
KPNE - Philadelphia/Ne, Pennsylvania, USA
Distance from station: SE 45mi, 72km
Updated: Sat, 18-Nov-2017 9:54am EST
Clear
Clear
 Wind from WSW
Wind: WSW 5 mph , 7 km/h
Temperature: 46°F , 8°C
Wind Chill: 44°F , 7°C
Dew Point: 37°F , 3°C
Humidity: 71%
Barometer: 29.92 inHg , 1013.2 hPa
Clouds: Clear
Visibility: 10 miles , 16 km
2017/11/18 14:54 KPNE 181454Z 24004KT 10SM CLR 08/03 A2992 RMK AO2 SLP132 T00830028 58025
 
KTTN - Trenton, New Jersey, USA
Distance from station: ESE 45mi, 73km
Updated: Sat, 18-Nov-2017 9:53am EST
Clear
Clear
 Wind from calm
Wind: Calm
Temperature: 39°F , 4°C
Dew Point: 34°F , 1°C
Humidity: 81%
Barometer: 29.89 inHg , 1012.2 hPa
Clouds: Clear
Visibility: 10 miles , 16 km
2017/11/18 14:53 KTTN 181453Z 00000KT 10SM CLR 04/01 A2989 RMK AO2 SLP118 T00390011 58028
KLNS - Lancaster, Pennsylvania, USA
Distance from station: SW 48mi, 76km
Updated: Sat, 18-Nov-2017 9:53am EST
Overcast
Overcast
 Wind from SE
Wind: SE 6 mph , 9 km/h
Temperature: 43°F , 6°C
Wind Chill: 39°F , 4°C
Dew Point: 37°F , 3°C
Humidity: 81%
Barometer: 29.86 inHg , 1011.2 hPa
Clouds: Overcast
Visibility: 10 miles , 16 km
Cloud details: Overcast 10000 ft
2017/11/18 14:53 KLNS 181453Z 14005KT 10SM OVC100 06/03 A2986 RMK AO2 SLP114 T00610033 58017